Time;durP1;ratioP1;P1;durP2;ratioP2;P2;SDS_P1;SDS_P2;PMS_P1;PMS_P2;Temp;Humidity;BMP_temperature;BMP_pressure;BME280_temperature;BME280_humidity;BME280_pressure;Samples;Min_cycle;Max_cycle;Signal;HPM_P1;HPM_P2
2021/09/05 00:00:39;;;;;;;8.57;5.90;;;;;;;11.36;82.49;97948.32;1641393;86;21062;-85
2021/09/05 00:03:15;;;;;;;8.90;6.65;;;;;;;11.20;83.38;97951.94;1652265;86;21072;-86
2021/09/05 00:05:49;;;;;;;9.53;6.72;;;;;;;11.13;83.14;97947.77;1652891;86;21011;-87
2021/09/05 00:08:24;;;;;;;12.30;7.00;;;;;;;11.13;82.44;97948.61;1653160;86;21508;-87
2021/09/05 00:10:58;;;;;;;9.40;6.58;;;;;;;11.09;81.98;97948.33;1649115;87;21042;-85
2021/09/05 00:13:26;;;;;;;10.15;6.75;;;;;;;11.04;82.59;97957.74;1666579;86;21107;-85
2021/09/05 00:16:01;;;;;;;10.15;6.87;;;;;;;10.98;82.38;97951.32;1652933;86;21044;-87
2021/09/05 00:18:41;;;;;;;12.63;7.28;;;;;;;10.93;82.72;97954.09;1643383;85;21020;-86
2021/09/05 00:21:13;;;;;;;10.32;7.17;;;;;;;10.87;83.47;97951.66;1638153;87;21041;-85
2021/09/05 00:23:43;;;;;;;12.82;6.80;;;;;;;10.79;84.04;97953.22;1645906;86;21221;-78
2021/09/05 00:26:10;;;;;;;12.03;7.17;;;;;;;10.76;83.14;97953.30;1649370;86;21028;-79
2021/09/05 00:28:37;;;;;;;13.83;7.60;;;;;;;10.75;82.48;97953.38;1655430;85;21010;-76
2021/09/05 00:31:04;;;;;;;11.60;7.53;;;;;;;10.74;82.21;97954.27;1664218;85;21024;-77
2021/09/05 00:33:31;;;;;;;10.45;6.92;;;;;;;10.75;82.35;97956.03;1639590;87;21066;-76
2021/09/05 00:35:57;;;;;;;11.45;7.35;;;;;;;10.69;82.15;97951.33;1661021;85;21064;-77
2021/09/05 00:38:25;;;;;;;10.08;6.90;;;;;;;10.67;81.90;97963.74;1639872;87;21036;-76
2021/09/05 00:40:52;;;;;;;10.85;7.03;;;;;;;10.65;83.64;97958.95;1639785;87;21008;-76
2021/09/05 00:43:19;;;;;;;11.80;7.35;;;;;;;10.63;83.13;97963.42;1639893;87;20996;-76
2021/09/05 00:45:46;;;;;;;11.30;7.03;;;;;;;10.61;83.61;97960.41;1639946;87;22192;-76
2021/09/05 00:48:12;;;;;;;12.30;6.67;;;;;;;10.60;82.52;97956.91;1651220;87;21035;-80
2021/09/05 00:50:42;;;;;;;11.55;6.70;;;;;;;10.64;83.00;97961.65;1626734;88;21016;-80
2021/09/05 00:53:09;;;;;;;10.43;6.35;;;;;;;10.63;82.42;97962.09;1640687;87;20966;-80
2021/09/05 00:55:38;;;;;;;12.90;7.00;;;;;;;10.66;82.33;97961.13;1652806;87;21007;-81
2021/09/05 00:58:08;;;;;;;11.35;6.92;;;;;;;10.68;82.52;97960.17;1646232;87;21082;-81
2021/09/05 01:00:37;;;;;;;11.55;6.67;;;;;;;10.69;83.02;97962.38;1661383;86;20984;-80
2021/09/05 01:03:04;;;;;;;8.88;6.35;;;;;;;10.69;82.89;97965.02;1639804;86;20989;-80
2021/09/05 01:05:31;;;;;;;8.98;5.87;;;;;;;10.71;83.10;97963.66;1639723;87;21028;-81
2021/09/05 01:07:58;;;;;;;11.88;6.15;;;;;;;10.71;83.29;97964.98;1639748;87;21008;-80
2021/09/05 01:10:26;;;;;;;9.58;5.90;;;;;;;10.73;82.70;97972.42;1599208;90;21083;-80
2021/09/05 01:12:57;;;;;;;9.15;6.20;;;;;;;10.72;83.34;97968.92;1639800;87;21418;-80
2021/09/05 01:15:23;;;;;;;8.15;5.95;;;;;;;10.65;83.51;97970.89;1639766;87;21061;-80
2021/09/05 01:17:50;;;;;;;11.75;6.20;;;;;;;10.65;83.27;97967.36;1645700;86;21024;-79
2021/09/05 01:20:35;;;;;;;10.40;6.53;;;;;;;10.62;83.81;97972.73;1642587;87;21078;-80
2021/09/05 01:23:06;;;;;;;11.00;7.25;;;;;;;10.63;83.62;97970.52;1649683;87;21455;-80
2021/09/05 01:25:37;;;;;;;10.93;6.42;;;;;;;10.59;83.81;97972.84;1650213;87;21082;-79
2021/09/05 01:28:15;;;;;;;10.18;6.80;;;;;;;10.55;83.15;97969.43;1586430;90;21116;-80
2021/09/05 01:30:55;;;;;;;9.63;6.30;;;;;;;10.53;83.22;97967.27;1623344;88;21476;-79
2021/09/05 01:33:29;;;;;;;10.03;6.67;;;;;;;10.48;82.83;97970.51;1615159;87;21464;-79
2021/09/05 01:36:16;;;;;;;9.35;6.15;;;;;;;10.46;82.88;97971.02;1639729;87;21022;-79
2021/09/05 01:39:01;;;;;;;10.18;6.42;;;;;;;10.41;82.61;97960.07;1639980;86;21016;-80
2021/09/05 01:41:28;;;;;;;10.50;6.80;;;;;;;10.36;83.74;97959.78;1655715;86;21009;-79
2021/09/05 01:44:14;;;;;;;11.33;6.45;;;;;;;10.34;82.74;97967.77;1629556;87;21421;-79
2021/09/05 01:46:58;;;;;;;9.50;6.45;;;;;;;10.24;85.23;97967.18;1666540;86;21438;-80
2021/09/05 01:49:44;;;;;;;10.00;6.58;;;;;;;10.23;84.35;97966.77;1660853;86;21041;-79
2021/09/05 01:52:29;;;;;;;10.05;6.37;;;;;;;10.19;84.48;97963.80;1644479;86;21019;-80
2021/09/05 01:55:14;;;;;;;9.23;6.35;;;;;;;10.16;84.11;97968.73;1665961;86;20973;-80
2021/09/05 01:57:51;;;;;;;8.95;6.58;;;;;;;10.12;85.57;97957.80;1650466;87;21090;-80
2021/09/05 02:00:20;;;;;;;11.45;7.08;;;;;;;10.08;85.90;97967.22;1650353;86;21094;-80
2021/09/05 02:02:48;;;;;;;10.18;6.00;;;;;;;10.06;85.14;97969.91;1639319;86;21104;-79
2021/09/05 02:05:28;;;;;;;10.93;7.47;;;;;;;9.99;86.57;97966.55;1610169;86;21441;-79
2021/09/05 02:08:15;;;;;;;10.70;6.50;;;;;;;9.99;84.64;97971.84;1654252;86;21532;-80
2021/09/05 02:11:02;;;;;;;12.85;6.58;;;;;;;9.96;86.76;97972.39;1635656;87;21066;-79
2021/09/05 02:13:47;;;;;;;7.35;5.85;;;;;;;9.99;85.30;97969.20;1666764;86;21017;-80
2021/09/05 02:16:32;;;;;;;8.35;6.05;;;;;;;10.03;85.33;97968.65;1653017;87;21075;-80
2021/09/05 02:19:09;;;;;;;10.50;5.90;;;;;;;10.08;85.57;97965.41;1586355;90;21124;-80
2021/09/05 02:21:38;;;;;;;8.13;5.22;;;;;;;10.13;84.62;97967.95;1651162;86;21083;-79
2021/09/05 02:24:15;;;;;;;7.60;5.50;;;;;;;10.17;85.26;97964.28;1630366;87;21078;-79
2021/09/05 02:26:49;;;;;;;8.53;5.80;;;;;;;10.20;85.39;97973.91;1655726;86;21005;-80
2021/09/05 02:29:26;;;;;;;8.55;5.00;;;;;;;10.22;85.70;97962.84;1624286;86;21504;-80
2021/09/05 02:32:01;;;;;;;8.03;5.20;;;;;;;10.24;85.34;97967.63;1667869;85;20997;-80
2021/09/05 02:34:33;;;;;;;8.55;5.65;;;;;;;10.26;85.16;97960.52;1662325;86;21020;-80
2021/09/05 02:37:11;;;;;;;7.35;5.10;;;;;;;10.29;84.88;97971.89;1655386;86;21006;-80
2021/09/05 02:39:56;;;;;;;7.35;5.58;;;;;;;10.27;85.09;97969.75;1646397;87;21060;-80
2021/09/05 02:42:35;;;;;;;8.35;5.33;;;;;;;10.27;84.89;97972.84;1648894;86;21016;-79
2021/09/05 02:45:06;;;;;;;8.35;6.03;;;;;;;10.27;84.59;97973.73;1592691;86;21422;-81
2021/09/05 02:47:38;;;;;;;10.88;5.80;;;;;;;10.24;84.52;97979.09;1650324;85;21008;-81
2021/09/05 02:50:15;;;;;;;7.30;5.78;;;;;;;10.25;84.17;97982.59;1670959;85;21461;-80
2021/09/05 02:52:46;;;;;;;8.10;5.97;;;;;;;10.20;83.62;97984.51;1654564;86;21015;-80
2021/09/05 02:55:31;;;;;;;8.00;5.50;;;;;;;10.16;83.54;97981.09;1672148;86;21148;-80
2021/09/05 02:58:00;;;;;;;10.38;6.17;;;;;;;10.03;84.91;97981.45;1665763;85;20985;-80
2021/09/05 03:00:34;;;;;;;9.68;6.12;;;;;;;9.99;83.96;97979.79;1656584;86;21044;-80
2021/09/05 03:03:02;;;;;;;10.60;6.30;;;;;;;9.93;84.99;97980.41;1669868;85;21019;-80
2021/09/05 03:05:37;;;;;;;8.98;6.08;;;;;;;9.89;84.18;97984.92;1654906;86;21531;-80
2021/09/05 03:08:05;;;;;;;9.90;6.20;;;;;;;9.88;83.71;97984.05;1671782;85;21033;-80
2021/09/05 03:10:39;;;;;;;7.60;5.72;;;;;;;9.85;83.79;97985.91;1629925;85;21044;-80
2021/09/05 03:13:23;;;;;;;8.93;5.78;;;;;;;9.82;84.37;97987.30;1626347;88;21520;-80
2021/09/05 03:16:07;;;;;;;9.85;6.30;;;;;;;9.79;83.77;97984.76;1672156;85;21052;-80
2021/09/05 03:18:44;;;;;;;8.73;6.00;;;;;;;9.75;83.95;97991.89;1672518;85;20974;-80
2021/09/05 03:21:24;;;;;;;10.28;6.20;;;;;;;9.74;83.86;97995.01;1672152;85;21073;-80
2021/09/05 03:24:09;;;;;;;;;;;;;;;9.73;83.85;97992.39;1675348;85;20988;-80
2021/09/05 03:26:46;;;;;;;8.58;5.47;;;;;;;9.69;83.35;98002.20;1658548;85;20173;-80
2021/09/05 03:29:31;;;;;;;9.38;6.22;;;;;;;9.63;84.17;98002.34;1639776;87;21452;-80
2021/09/05 03:32:04;;;;;;;8.35;6.12;;;;;;;9.60;84.04;97997.14;1646714;86;21431;-81
2021/09/05 03:34:49;;;;;;;7.60;5.47;;;;;;;9.58;84.04;98006.44;1646474;87;21025;-81
2021/09/05 03:37:23;;;;;;;;;;;;;;;9.56;83.58;98017.53;1614186;87;21019;-81
2021/09/05 03:39:55;;;;;;;8.48;5.55;;;;;;;9.53;83.40;98016.27;1642811;87;20130;-81
2021/09/05 03:42:40;;;;;;;9.90;6.33;;;;;;;9.50;83.15;98018.98;1603402;89;21042;-81
2021/09/05 03:45:11;;;;;;;9.03;5.83;;;;;;;9.46;83.46;98022.16;1644520;86;21036;-81
2021/09/05 03:47:45;;;;;;;;;;;;;;;9.44;83.58;98023.98;1653838;86;21016;-80
2021/09/05 03:50:13;;;;;;;8.18;5.87;;;;;;;9.44;83.55;98029.72;1604052;87;20106;-80
2021/09/05 03:52:42;;;;;;;10.38;6.60;;;;;;;9.39;83.08;98032.49;1650253;87;21049;-81
2021/09/05 03:55:12;;;;;;;10.55;6.17;;;;;;;9.36;83.77;98036.08;1657457;87;21023;-80
2021/09/05 03:57:38;;;;;;;9.00;6.53;;;;;;;9.35;83.58;98030.34;1673067;86;21024;-80
2021/09/05 04:00:07;;;;;;;10.80;6.30;;;;;;;9.35;83.50;98032.99;1668429;84;21121;-81
2021/09/05 04:02:35;;;;;;;11.33;6.45;;;;;;;9.34;84.07;98025.97;1671987;85;21024;-82
2021/09/05 04:05:02;;;;;;;9.53;6.08;;;;;;;9.34;84.15;98032.59;1654734;87;21101;-76
2021/09/05 04:07:31;;;;;;;9.38;6.45;;;;;;;9.35;83.69;98040.92;1657401;87;21031;-77
2021/09/05 04:10:08;;;;;;;8.63;6.08;;;;;;;9.35;83.67;98042.25;1673536;85;21032;-79
2021/09/05 04:12:40;;;;;;;9.05;5.80;;;;;;;9.40;83.85;98040.84;1651296;86;21074;-78
2021/09/05 04:15:09;;;;;;;7.53;5.67;;;;;;;9.44;83.58;98035.01;1645135;87;21090;-78
2021/09/05 04:17:36;;;;;;;9.13;5.60;;;;;;;9.49;83.84;98043.27;1668909;86;21080;-78
2021/09/05 04:20:05;;;;;;;7.80;6.05;;;;;;;9.56;84.52;98036.48;1673480;85;21083;-78
2021/09/05 04:22:32;;;;;;;6.75;5.40;;;;;;;9.61;84.22;98050.03;1673686;85;21104;-78
2021/09/05 04:25:00;;;;;;;8.98;5.30;;;;;;;9.67;84.28;98049.45;1673519;86;21012;-78
2021/09/05 04:27:27;;;;;;;9.98;6.05;;;;;;;9.70;84.44;98054.66;1673487;86;21099;-78
2021/09/05 04:29:53;;;;;;;7.67;5.40;;;;;;;9.75;84.55;98055.41;1648966;86;21501;-78
2021/09/05 04:32:21;;;;;;;7.55;5.50;;;;;;;9.80;84.56;98057.48;1661384;85;21037;-79
2021/09/05 04:34:49;;;;;;;9.68;5.30;;;;;;;9.82;84.70;98060.09;1652321;87;21445;-78
2021/09/05 04:37:20;;;;;;;9.03;5.65;;;;;;;9.90;85.01;98067.39;1648793;87;21118;-78
2021/09/05 04:39:47;;;;;;;8.40;5.50;;;;;;;9.94;85.10;98066.86;1659889;86;21044;-78
2021/09/05 04:42:13;;;;;;;8.55;5.60;;;;;;;10.04;84.90;98065.70;1638441;87;21025;-78
2021/09/05 04:44:40;;;;;;;8.43;5.58;;;;;;;10.10;84.70;98069.98;1638412;87;20985;-78
2021/09/05 04:47:07;;;;;;;8.05;5.03;;;;;;;10.14;84.66;98068.52;1638111;88;21481;-78
2021/09/05 04:49:33;;;;;;;11.57;5.85;;;;;;;10.20;84.49;98079.41;1638427;87;20981;-78
2021/09/05 04:52:00;;;;;;;8.10;5.83;;;;;;;10.25;84.40;98077.52;1624942;88;21071;-79
2021/09/05 04:54:28;;;;;;;8.55;5.78;;;;;;;10.33;84.16;98083.07;1660997;86;21043;-78
2021/09/05 04:56:54;;;;;;;7.53;5.50;;;;;;;10.34;83.49;98081.68;1653008;86;21468;-76
2021/09/05 04:59:21;;;;;;;8.73;6.22;;;;;;;10.37;83.59;98087.34;1666888;86;20985;-77
2021/09/05 05:01:47;;;;;;;7.35;5.67;;;;;;;10.36;83.52;98085.17;1652831;86;21031;-77
2021/09/05 05:04:13;;;;;;;8.68;6.08;;;;;;;10.33;84.12;98078.63;1635366;87;21464;-78
2021/09/05 05:06:42;;;;;;;8.73;5.92;;;;;;;10.33;83.32;98071.16;1650878;86;21017;-77
2021/09/05 05:09:10;;;;;;;10.58;6.50;;;;;;;10.35;83.09;98080.80;1638334;87;21029;-76
2021/09/05 05:11:38;;;;;;;8.80;6.17;;;;;;;10.34;83.17;98076.38;1638393;87;21021;-77
2021/09/05 05:14:05;;;;;;;22.90;16.55;;;;;;;10.39;83.22;98074.95;1638429;88;21005;-78
2021/09/05 05:16:33;;;;;;;16.20;11.22;;;;;;;10.42;83.08;98068.22;1625040;88;21059;-78
2021/09/05 05:19:00;;;;;;;10.30;6.87;;;;;;;10.48;83.12;98077.82;1638532;88;20996;-80
2021/09/05 05:21:27;;;;;;;7.72;6.17;;;;;;;10.50;83.26;98081.31;1638330;87;21529;-76
2021/09/05 05:23:55;;;;;;;10.35;6.45;;;;;;;10.51;83.36;98080.40;1654327;86;20980;-77
2021/09/05 05:26:24;;;;;;;9.40;6.85;;;;;;;10.51;82.79;98078.59;1652504;86;21014;-77
2021/09/05 05:28:50;;;;;;;10.40;6.08;;;;;;;10.53;83.04;98086.06;1639207;87;21433;-77
2021/09/05 05:31:17;;;;;;;9.30;6.15;;;;;;;10.58;83.00;98087.72;1659887;86;21052;-77
2021/09/05 05:33:44;;;;;;;8.90;5.97;;;;;;;10.61;82.69;98083.64;1644008;86;21470;-77
2021/09/05 05:36:10;;;;;;;10.03;6.33;;;;;;;10.64;82.86;98076.50;1628933;88;21019;-77
2021/09/05 05:38:40;;;;;;;11.55;7.08;;;;;;;10.67;82.63;98078.19;1645156;86;21056;-77
2021/09/05 05:41:08;;;;;;;9.05;6.00;;;;;;;10.73;82.79;98079.77;1643506;86;21068;-77
2021/09/05 05:43:36;;;;;;;8.08;5.22;;;;;;;10.75;82.66;98080.14;1644788;87;21068;-76
2021/09/05 05:46:03;;;;;;;9.13;6.12;;;;;;;10.81;82.54;98089.23;1629298;88;21062;-76
2021/09/05 05:48:29;;;;;;;9.03;6.03;;;;;;;10.87;82.22;98084.22;1650715;86;21379;-76
2021/09/05 05:50:57;;;;;;;8.88;5.75;;;;;;;10.92;82.01;98088.92;1659552;86;20961;-76
2021/09/05 05:53:24;;;;;;;9.88;6.37;;;;;;;10.99;82.10;98087.41;1668678;86;20998;-77
2021/09/05 05:55:51;;;;;;;8.35;5.95;;;;;;;11.07;81.61;98086.29;1645388;87;21022;-77
2021/09/05 05:58:17;;;;;;;11.78;6.83;;;;;;;11.19;81.54;98089.47;1673639;86;20985;-77
2021/09/05 06:00:46;;;;;;;11.12;5.80;;;;;;;11.28;81.35;98086.98;1673792;85;21039;-77
2021/09/05 06:03:12;;;;;;;9.35;5.90;;;;;;;11.36;81.13;98091.61;1657387;87;21078;-76
2021/09/05 06:05:39;;;;;;;10.18;6.15;;;;;;;11.45;80.69;98094.42;1673862;86;21043;-76
2021/09/05 06:08:07;;;;;;;12.00;6.05;;;;;;;11.54;80.52;98095.45;1657345;87;21054;-77
2021/09/05 06:10:34;;;;;;;8.73;5.25;;;;;;;11.64;80.20;98091.19;1673804;86;21407;-77
2021/09/05 06:13:00;;;;;;;8.83;6.58;;;;;;;11.76;80.01;98096.11;1657474;86;21063;-77
2021/09/05 06:15:27;;;;;;;7.55;5.12;;;;;;;11.86;79.88;98091.34;1673935;86;21063;-77
2021/09/05 06:17:53;;;;;;;9.48;5.92;;;;;;;11.95;79.86;98089.72;1654704;86;21501;-77
2021/09/05 06:20:19;;;;;;;8.45;6.12;;;;;;;12.06;80.01;98090.72;1657862;86;20997;-78
2021/09/05 06:22:46;;;;;;;8.43;5.97;;;;;;;12.19;80.12;98098.25;1637933;85;21047;-78
2021/09/05 06:25:13;;;;;;;42.40;27.32;;;;;;;12.31;80.29;98092.97;1673646;86;21001;-78
2021/09/05 06:27:39;;;;;;;12.37;8.20;;;;;;;12.43;80.22;98095.66;1673834;86;20992;-78
2021/09/05 06:30:07;;;;;;;9.43;5.72;;;;;;;12.56;79.80;98098.30;1657539;87;21072;-78
2021/09/05 06:32:33;;;;;;;7.03;5.62;;;;;;;12.70;79.09;98104.43;1673468;86;21135;-77
2021/09/05 06:35:04;;;;;;;7.67;5.87;;;;;;;12.85;78.83;98099.47;1657400;86;21018;-77
2021/09/05 06:37:30;;;;;;;7.42;5.45;;;;;;;12.99;78.92;98102.97;1673755;85;21049;-78
2021/09/05 06:39:57;;;;;;;9.43;5.87;;;;;;;13.11;78.53;98101.60;1657339;87;21121;-77
2021/09/05 06:42:23;;;;;;;8.83;5.62;;;;;;;13.24;78.27;98106.86;1671701;85;21025;-78
2021/09/05 06:44:49;;;;;;;7.65;5.83;;;;;;;13.34;77.79;98105.58;1660618;85;21008;-77
2021/09/05 06:47:16;;;;;;;6.97;5.20;;;;;;;13.49;77.59;98109.08;1652485;86;21609;-77
2021/09/05 06:49:42;;;;;;;8.18;5.33;;;;;;;13.60;76.67;98117.50;1645134;87;21021;-77
2021/09/05 06:52:09;;;;;;;8.43;5.75;;;;;;;13.71;76.67;98118.41;1644982;87;21044;-77
2021/09/05 06:54:35;;;;;;;9.38;6.30;;;;;;;13.83;76.44;98111.72;1671976;86;21028;-77
2021/09/05 06:57:04;;;;;;;9.03;6.28;;;;;;;13.96;76.54;98117.40;1657423;87;21078;-78
2021/09/05 06:59:31;;;;;;;9.85;5.80;;;;;;;14.09;75.30;98115.97;1657434;87;21373;-77
2021/09/05 07:01:57;;;;;;;8.98;5.42;;;;;;;14.26;75.76;98118.37;1657294;87;21114;-77
2021/09/05 07:04:23;;;;;;;7.53;5.67;;;;;;;14.39;73.20;98119.58;1673675;86;20965;-77
2021/09/05 07:06:50;;;;;;;7.67;5.70;;;;;;;14.54;73.09;98113.64;1657158;86;21023;-77
2021/09/05 07:09:17;;;;;;;6.92;5.58;;;;;;;14.66;72.31;98114.45;1664640;86;21060;-77
2021/09/05 07:11:43;;;;;;;7.85;5.92;;;;;;;14.78;73.57;98110.36;1650893;86;21000;-77
2021/09/05 07:14:09;;;;;;;8.35;5.40;;;;;;;14.89;73.83;98118.77;1644957;87;21042;-77
2021/09/05 07:16:36;;;;;;;7.78;5.62;;;;;;;14.99;72.72;98117.87;1645215;87;21539;-77
2021/09/05 07:19:02;;;;;;;8.90;5.45;;;;;;;15.07;72.04;98117.52;1645163;87;21029;-77
2021/09/05 07:21:29;;;;;;;8.90;6.50;;;;;;;15.16;72.62;98126.44;1644981;87;20981;-77
2021/09/05 07:23:55;;;;;;;16.97;10.25;;;;;;;15.27;72.27;98117.94;1663682;86;21028;-77
2021/09/05 07:26:24;;;;;;;13.43;8.93;;;;;;;15.38;72.42;98121.90;1650006;85;21048;-77
2021/09/05 07:28:50;;;;;;;7.15;5.90;;;;;;;15.49;71.67;98124.92;1646476;87;21043;-77
2021/09/05 07:31:17;;;;;;;7.33;5.33;;;;;;;15.60;71.10;98136.44;1646560;87;21501;-77
2021/09/05 07:33:43;;;;;;;7.35;5.67;;;;;;;15.69;71.40;98135.11;1655573;86;21443;-78
2021/09/05 07:36:10;;;;;;;7.10;5.47;;;;;;;15.76;71.60;98129.01;1660376;86;21012;-77
2021/09/05 07:38:36;;;;;;;10.35;5.35;;;;;;;15.81;71.12;98131.86;1645146;87;21047;-77
2021/09/05 07:41:04;;;;;;;10.32;5.70;;;;;;;15.86;71.13;98134.78;1645214;87;21021;-77
2021/09/05 07:43:31;;;;;;;8.03;5.53;;;;;;;15.92;71.15;98131.34;1645149;87;20989;-78
2021/09/05 07:45:57;;;;;;;6.83;5.33;;;;;;;15.99;70.78;98138.63;1645138;87;21052;-78
2021/09/05 07:48:24;;;;;;;6.92;4.90;;;;;;;16.06;71.00;98134.69;1644935;87;20969;-78
2021/09/05 07:50:50;;;;;;;7.83;5.12;;;;;;;16.16;70.64;98143.59;1645156;87;21450;-78
2021/09/05 07:53:17;;;;;;;8.53;5.08;;;;;;;16.23;69.29;98147.67;1659607;86;21055;-78
2021/09/05 07:55:43;;;;;;;9.40;5.30;;;;;;;16.31;70.32;98146.82;1657350;87;21018;-79
2021/09/05 07:58:10;;;;;;;9.08;5.60;;;;;;;16.36;68.55;98137.25;1663632;86;21041;-76
2021/09/05 08:00:36;;;;;;;6.75;5.05;;;;;;;16.43;69.22;98144.45;1647048;86;21529;-75
2021/09/05 08:03:05;;;;;;;6.80;5.15;;;;;;;16.50;69.24;98150.75;1673720;85;21017;-79
2021/09/05 08:05:31;;;;;;;7.17;5.40;;;;;;;16.58;69.18;98150.84;1673154;85;21099;-78
2021/09/05 08:07:58;;;;;;;8.23;5.15;;;;;;;16.67;68.56;98154.38;1673421;85;21037;-78
2021/09/05 08:10:25;;;;;;;5.92;4.67;;;;;;;16.74;67.62;98151.77;1657173;87;21026;-78
2021/09/05 08:12:52;;;;;;;39.75;26.95;;;;;;;16.84;68.15;98152.16;1673695;86;21048;-77
2021/09/05 08:15:19;;;;;;;16.82;10.50;;;;;;;16.93;68.15;98145.93;1673661;85;20988;-77
2021/09/05 08:17:45;;;;;;;9.60;5.87;;;;;;;17.00;66.74;98150.88;1673489;85;21453;-78
2021/09/05 08:20:12;;;;;;;7.15;5.10;;;;;;;17.07;67.39;98152.75;1657387;86;20986;-77
2021/09/05 08:22:40;;;;;;;7.00;5.50;;;;;;;17.12;66.05;98150.72;1671421;84;21036;-78
2021/09/05 08:25:08;;;;;;;6.97;5.60;;;;;;;17.20;64.80;98148.97;1648379;87;21018;-78
2021/09/05 08:27:36;;;;;;;7.80;6.05;;;;;;;17.28;64.39;98154.75;1673629;86;21514;-75
2021/09/05 08:30:04;;;;;;;8.83;5.62;;;;;;;17.36;65.43;98154.33;1657355;86;21058;-76
2021/09/05 08:32:40;;;;;;;7.70;5.70;;;;;;;17.49;65.44;98145.62;1802769;79;21638;-75
2021/09/05 08:35:08;;;;;;;8.43;5.15;;;;;;;17.51;65.61;98148.61;1763110;81;21008;-76
2021/09/05 08:37:35;;;;;;;7.60;5.55;;;;;;;17.58;65.75;98141.09;1761977;81;20989;-75
2021/09/05 08:40:02;;;;;;;8.23;5.90;;;;;;;17.65;65.60;98146.48;1763241;81;21051;-75
2021/09/05 08:42:33;;;;;;;8.03;5.70;;;;;;;17.73;64.42;98146.05;1762977;81;21051;-81
2021/09/05 08:44:59;;;;;;;8.98;5.90;;;;;;;17.83;65.09;98142.84;1762778;81;21119;-81
2021/09/05 08:47:33;;;;;;;8.10;6.28;;;;;;;17.92;63.30;98144.54;1758774;80;21016;-79
2021/09/05 08:50:05;;;;;;;10.65;6.28;;;;;;;18.06;63.33;98138.37;1747055;81;21048;-76
2021/09/05 08:52:33;;;;;;;9.33;6.22;;;;;;;18.19;63.91;98137.70;1760983;81;21051;-80
2021/09/05 08:55:00;;;;;;;49.25;34.38;;;;;;;18.29;64.06;98133.52;1761383;81;21007;-80
2021/09/05 08:57:27;;;;;;;13.88;10.68;;;;;;;18.40;64.39;98136.88;1761264;81;21056;-80
2021/09/05 08:59:53;;;;;;;9.30;7.08;;;;;;;18.49;64.02;98131.93;1759893;81;20956;-79
2021/09/05 09:02:20;;;;;;;10.72;6.70;;;;;;;18.58;63.25;98127.35;1761361;81;21028;-80
2021/09/05 09:04:50;;;;;;;9.88;7.72;;;;;;;18.68;63.46;98137.07;1761626;81;21433;-80
2021/09/05 09:07:16;;;;;;;8.45;6.58;;;;;;;18.78;63.51;98134.67;1761196;81;20984;-80
2021/09/05 09:09:59;;;;;;;8.55;6.40;;;;;;;18.89;63.08;98127.31;1761527;81;21012;-80
2021/09/05 09:12:46;;;;;;;10.08;7.00;;;;;;;18.98;62.25;98126.24;1759097;80;21020;-77
2021/09/05 09:15:29;;;;;;;9.80;6.87;;;;;;;19.09;62.50;98124.27;1759633;81;20997;-76
2021/09/05 09:18:03;;;;;;;9.40;6.83;;;;;;;19.14;60.96;98126.66;1739143;81;20996;-76
2021/09/05 09:20:41;;;;;;;9.23;6.70;;;;;;;19.21;61.30;98133.85;1732433;82;21018;-76
2021/09/05 09:23:13;;;;;;;10.30;7.00;;;;;;;19.33;60.11;98130.41;1748591;81;21041;-76
2021/09/05 09:26:02;;;;;;;8.60;6.72;;;;;;;19.46;60.38;98125.57;1761333;81;21005;-76
2021/09/05 09:28:39;;;;;;;10.63;7.15;;;;;;;19.60;59.73;98126.89;1761163;81;21009;-76
2021/09/05 09:31:21;;;;;;;8.25;6.87;;;;;;;19.75;58.36;98123.70;1761734;80;21024;-76
2021/09/05 09:33:54;;;;;;;7.80;6.40;;;;;;;19.95;58.95;98123.34;1762050;81;21016;-78
2021/09/05 09:36:25;;;;;;;8.60;6.47;;;;;;;20.13;57.78;98122.62;1761633;81;21434;-81
2021/09/05 09:39:05;;;;;;;8.43;6.15;;;;;;;20.31;58.59;98119.20;1748423;80;21031;-87
2021/09/05 09:41:34;;;;;;;11.00;7.28;;;;;;;20.49;58.42;98118.42;1755324;81;21032;-85
2021/09/05 09:44:04;;;;;;;9.28;6.78;;;;;;;20.66;57.47;98121.30;1762769;81;21001;-86
2021/09/05 09:46:34;;;;;;;9.73;7.03;;;;;;;20.82;57.06;98122.91;1762669;81;21486;-87
2021/09/05 09:49:04;;;;;;;9.23;6.97;;;;;;;20.96;56.98;98120.63;1762420;81;20945;-85
2021/09/05 09:51:32;;;;;;;8.23;6.42;;;;;;;21.13;56.78;98117.23;1762185;81;21428;-85
2021/09/05 09:53:59;;;;;;;9.05;6.33;;;;;;;21.31;55.42;98113.70;1762191;81;21462;-85
2021/09/05 09:56:27;;;;;;;12.78;7.15;;;;;;;21.33;54.67;98105.88;1762543;81;21020;-85
2021/09/05 09:59:02;;;;;;;10.13;6.62;;;;;;;21.38;55.43;98108.73;1762556;81;21466;-85
2021/09/05 10:01:32;;;;;;;10.08;7.22;;;;;;;21.36;55.52;98109.71;1761067;81;20973;-86
2021/09/05 10:04:01;;;;;;;7.92;6.55;;;;;;;21.32;55.21;98106.86;1750626;80;20993;-85
2021/09/05 10:06:37;;;;;;;9.13;6.97;;;;;;;21.34;55.16;98106.24;1760016;81;20992;-85
2021/09/05 10:09:05;;;;;;;9.33;6.70;;;;;;;21.37;52.78;98110.55;1732941;82;21099;-86
2021/09/05 10:11:35;;;;;;;9.28;7.22;;;;;;;21.46;54.63;98109.89;1733479;82;21067;-86
2021/09/05 10:14:03;;;;;;;10.43;6.50;;;;;;;21.51;53.56;98110.92;1733603;82;21037;-85
2021/09/05 10:16:30;;;;;;;8.78;7.00;;;;;;;21.54;53.96;98108.48;1732693;83;20992;-85
2021/09/05 10:19:04;;;;;;;8.80;6.42;;;;;;;21.59;53.04;98100.91;1732791;83;21028;-85
2021/09/05 10:21:34;;;;;;;9.08;7.33;;;;;;;21.60;52.03;98101.28;1732678;83;20996;-86
2021/09/05 10:24:01;;;;;;;13.88;10.00;;;;;;;21.65;51.28;98095.06;1760860;81;21021;-83
2021/09/05 10:26:28;;;;;;;8.65;7.75;;;;;;;21.80;51.91;98093.58;1761190;81;21004;-84
2021/09/05 10:28:57;;;;;;;8.13;7.08;;;;;;;21.93;52.16;98091.70;1751640;80;21052;-86
2021/09/05 10:31:33;;;;;;;10.30;7.28;;;;;;;22.05;52.01;98088.56;1757706;81;21025;-86
2021/09/05 10:34:00;;;;;;;10.40;6.62;;;;;;;22.12;51.78;98092.98;1744002;81;21025;-87
2021/09/05 10:36:28;;;;;;;11.57;7.15;;;;;;;22.24;51.87;98083.09;1744018;81;21569;-86
2021/09/05 10:39:08;;;;;;;10.98;7.53;;;;;;;22.51;51.67;98087.36;1760973;81;21419;-86
2021/09/05 10:41:49;;;;;;;9.50;6.35;;;;;;;23.39;51.89;98082.31;1760030;80;21576;-85
2021/09/05 10:44:17;;;;;;;9.05;6.60;;;;;;;25.82;39.25;98071.63;1738499;81;20966;-83
2021/09/05 10:46:52;;;;;;;7.17;6.47;;;;;;;25.82;39.25;98071.63;1762506;81;21395;-85
2021/09/05 10:49:38;;;;;;;8.30;6.70;;;;;;;26.89;39.39;98066.28;1762911;81;21487;-85
2021/09/05 10:52:08;;;;;;;7.50;6.53;;;;;;;28.23;41.85;98066.83;1753673;80;21391;-85
2021/09/05 10:54:49;;;;;;;8.38;6.42;;;;;;;29.42;40.45;98069.67;1754790;81;21423;-86
2021/09/05 10:57:41;;;;;;;6.90;6.22;;;;;;;30.05;35.35;98066.11;1762761;81;20989;-84
2021/09/05 11:00:09;;;;;;;9.53;5.80;;;;;;;29.06;38.38;98069.36;1738629;81;21068;-84
2021/09/05 11:03:08;;;;;;;8.23;6.15;;;;;;;28.18;39.20;98070.03;1762628;80;20933;-85
2021/09/05 11:05:35;;;;;;;8.53;6.80;;;;;;;27.53;39.44;98077.86;1741707;82;21056;-81
2021/09/05 11:08:23;;;;;;;7.55;6.70;;;;;;;26.60;40.02;98071.28;1758209;81;21415;-80
2021/09/05 11:10:52;;;;;;;9.03;6.12;;;;;;;26.08;40.53;98080.09;1745365;81;21036;-83
2021/09/05 11:13:45;;;;;;;8.73;5.87;;;;;;;25.51;41.71;98075.77;1760705;80;20980;-84
2021/09/05 11:16:18;;;;;;;8.88;6.45;;;;;;;25.01;40.76;98079.67;1752940;81;21071;-82
2021/09/05 11:18:47;;;;;;;7.95;6.12;;;;;;;24.56;41.96;98071.33;1756524;82;21082;-81
2021/09/05 11:21:24;;;;;;;8.28;6.15;;;;;;;24.26;43.50;98074.33;1756309;82;21021;-82
2021/09/05 11:23:52;;;;;;;9.13;6.12;;;;;;;25.52;43.86;98070.69;1756417;82;21051;-86
2021/09/05 11:26:20;;;;;;;10.48;6.58;;;;;;;26.96;41.79;98060.65;1755486;82;21414;-83
2021/09/05 11:28:50;;;;;;;8.18;6.42;;;;;;;28.17;40.67;98060.16;1756522;82;21426;-81
2021/09/05 11:31:17;;;;;;;8.38;6.05;;;;;;;29.29;38.66;98060.09;1751280;80;21047;-80
2021/09/05 11:33:45;;;;;;;8.18;6.05;;;;;;;30.29;36.29;98050.28;1740933;82;20977;-81
2021/09/05 11:36:12;;;;;;;7.05;5.80;;;;;;;31.13;33.51;98046.91;1748376;81;20990;-83
2021/09/05 11:38:40;;;;;;;8.10;6.60;;;;;;;31.71;29.94;98038.45;1745959;81;20965;-83
2021/09/05 11:41:07;;;;;;;6.65;5.55;;;;;;;31.91;30.15;98039.38;1743824;81;21012;-85
2021/09/05 11:43:40;;;;;;;6.47;5.83;;;;;;;32.68;32.05;98044.95;1716537;81;20997;-87
2021/09/05 11:46:17;;;;;;;7.72;6.03;;;;;;;33.54;31.12;98036.77;1746850;81;21012;-85
2021/09/05 11:48:59;;;;;;;6.37;5.78;;;;;;;34.16;29.18;98038.31;1735051;81;20986;-85